createdAt,value
2023-02-12T00:01:18.886Z,93.23
2023-02-12T00:03:49.248Z,82.20
2023-02-12T00:06:16.628Z,133.67
2023-02-12T00:08:43.900Z,74.50
2023-02-12T00:11:19.605Z,75.50
2023-02-12T00:13:47.328Z,84.47
2023-02-12T00:16:17.416Z,129.77
2023-02-12T00:18:45.489Z,147.27
2023-02-12T00:21:14.193Z,182.40
2023-02-12T00:23:41.668Z,189.13
2023-02-12T00:26:20.719Z,187.60
2023-02-12T00:28:50.688Z,180.93
2023-02-12T00:31:23.764Z,172.97
2023-02-12T00:33:51.130Z,192.10
2023-02-12T00:36:24.227Z,185.27
2023-02-12T00:38:53.225Z,178.53
2023-02-12T00:41:20.433Z,176.97
2023-02-12T00:43:47.616Z,169.13
2023-02-12T00:46:14.914Z,166.80
2023-02-12T00:48:44.013Z,168.80
2023-02-12T00:51:11.620Z,163.80
2023-02-12T00:53:38.871Z,156.13
2023-02-12T00:56:07.578Z,168.80
2023-02-12T00:58:34.612Z,169.40
2023-02-12T01:01:02.062Z,172.23
2023-02-12T01:03:29.086Z,173.57
2023-02-12T01:05:57.704Z,154.87
2023-02-12T01:08:25.060Z,169.00
2023-02-12T01:11:01.100Z,184.33
2023-02-12T01:13:30.629Z,187.15
2023-02-12T01:16:04.819Z,182.30
2023-02-12T01:18:31.952Z,168.57
2023-02-12T01:20:59.476Z,185.33
2023-02-12T01:23:26.623Z,168.03
2023-02-12T01:25:53.925Z,198.93
2023-02-12T01:28:21.312Z,178.20
2023-02-12T01:30:48.372Z,191.03
2023-02-12T01:33:15.424Z,177.30
2023-02-12T01:35:42.495Z,166.67
2023-02-12T01:38:09.708Z,185.27
2023-02-12T01:40:37.609Z,182.27
2023-02-12T01:43:04.815Z,169.37
2023-02-12T01:45:37.696Z,182.50
2023-02-12T01:48:05.198Z,153.80
2023-02-12T01:50:32.218Z,157.30
2023-02-12T01:52:59.937Z,170.57
2023-02-12T01:55:27.945Z,162.30
2023-02-12T01:57:54.987Z,169.80
2023-02-12T02:00:25.112Z,159.03
2023-02-12T02:02:55.496Z,149.47
2023-02-12T02:05:41.373Z,128.47
2023-02-12T02:08:10.803Z,119.80
2023-02-12T02:10:37.812Z,123.27
2023-02-12T02:13:23.568Z,113.77
2023-02-12T02:15:57.908Z,154.43
2023-02-12T02:18:53.968Z,149.20
2023-02-12T02:22:33.334Z,151.23
2023-02-12T02:25:20.339Z,140.73
2023-02-12T02:27:59.219Z,126.85
2023-02-12T02:30:45.564Z,117.60
2023-02-12T02:33:21.580Z,104.17
2023-02-12T02:36:04.408Z,145.43
2023-02-12T02:39:05.496Z,132.37
2023-02-12T02:41:43.524Z,129.23
2023-02-12T02:44:16.760Z,158.23
2023-02-12T02:46:49.350Z,147.13
2023-02-12T02:49:48.490Z,138.47
2023-02-12T02:52:20.855Z,122.77
2023-02-12T02:54:55.950Z,136.03
2023-02-12T02:57:31.950Z,140.73
2023-02-12T03:00:05.896Z,143.50
2023-02-12T03:02:37.512Z,149.90
2023-02-12T03:05:19.043Z,143.77
2023-02-12T03:07:52.711Z,154.47
2023-02-12T03:10:31.858Z,153.70
2023-02-12T03:13:07.496Z,151.70
2023-02-12T03:15:41.335Z,149.00
2023-02-12T03:18:13.996Z,144.63
2023-02-12T03:20:50.658Z,188.53
2023-02-12T03:23:25.247Z,209.23
2023-02-12T03:26:10.084Z,202.23
2023-02-12T03:28:39.119Z,210.43
2023-02-12T03:31:12.495Z,196.77
2023-02-12T03:33:54.722Z,195.93
2023-02-12T03:36:42.987Z,185.17
2023-02-12T03:39:47.562Z,205.90
2023-02-12T03:42:23.367Z,174.23
2023-02-12T03:44:50.368Z,174.47
2023-02-12T03:47:26.414Z,213.70
2023-02-12T03:50:09.558Z,183.82
2023-02-12T03:52:37.112Z,166.57
2023-02-12T03:55:05.669Z,136.63
2023-02-12T03:57:39.904Z,126.80
2023-02-12T04:00:12.734Z,72.73
2023-02-12T04:02:44.071Z,124.60
2023-02-12T04:05:28.994Z,143.40
2023-02-12T04:07:58.675Z,142.80
2023-02-12T04:11:07.239Z,139.67
2023-02-12T04:16:37.926Z,140.00
2023-02-12T04:19:06.430Z,137.73
2023-02-12T04:21:36.476Z,147.57
2023-02-12T04:24:16.923Z,150.77
2023-02-12T04:26:59.019Z,135.60
2023-02-12T04:29:48.439Z,122.90
2023-02-12T04:32:18.313Z,125.40
2023-02-12T04:35:08.907Z,135.97
2023-02-12T04:37:51.841Z,124.60
2023-02-12T04:40:20.945Z,120.90
2023-02-12T04:42:50.895Z,109.93
2023-02-12T04:45:33.578Z,103.50
2023-02-12T04:48:01.618Z,97.80
2023-02-12T04:50:39.278Z,96.00
2023-02-12T04:53:06.638Z,88.60
2023-02-12T04:55:33.774Z,84.93
2023-02-12T04:58:02.441Z,80.23
2023-02-12T05:00:29.645Z,92.43
2023-02-12T05:02:56.968Z,98.97
2023-02-12T05:05:24.842Z,97.77
2023-02-12T05:07:52.119Z,102.20
2023-02-12T05:10:20.293Z,105.47
2023-02-12T05:12:47.612Z,100.93
2023-02-12T05:15:14.637Z,113.53
2023-02-12T05:17:42.078Z,121.10
2023-02-12T05:20:09.524Z,114.43
2023-02-12T05:22:36.524Z,130.17
2023-02-12T05:25:04.199Z,128.17
2023-02-12T05:27:32.029Z,110.80
2023-02-12T05:29:58.974Z,114.83
2023-02-12T05:32:26.254Z,113.33
2023-02-12T05:34:53.473Z,109.87
2023-02-12T05:37:20.807Z,89.17
2023-02-12T05:39:50.579Z,129.37
2023-02-12T05:42:18.263Z,115.03
2023-02-12T05:44:45.210Z,110.83
2023-02-12T05:47:12.423Z,120.20
2023-02-12T05:49:39.843Z,131.73
2023-02-12T05:52:07.430Z,122.40
2023-02-12T05:54:34.384Z,117.27
2023-02-12T05:57:01.894Z,117.67
2023-02-12T05:59:28.851Z,104.90
2023-02-12T06:01:56.041Z,124.97
2023-02-12T06:04:25.922Z,62.30
2023-02-12T06:06:55.911Z,111.73
2023-02-12T06:09:24.287Z,88.00
2023-02-12T06:11:52.124Z,106.70
2023-02-12T06:14:20.936Z,85.47
2023-02-12T06:16:49.717Z,106.23
2023-02-12T06:19:17.304Z,92.37
2023-02-12T06:21:45.247Z,86.23
2023-02-12T06:24:17.225Z,79.07
2023-02-12T06:26:44.641Z,85.00
2023-02-12T06:29:13.426Z,67.80
2023-02-12T06:31:40.687Z,79.50
2023-02-12T06:34:10.442Z,74.90
2023-02-12T06:36:42.646Z,78.27
2023-02-12T06:39:09.724Z,76.47
2023-02-12T06:41:36.895Z,64.30
2023-02-12T06:44:05.164Z,77.80
2023-02-12T06:46:32.536Z,71.43
2023-02-12T06:49:00.966Z,75.73
2023-02-12T06:51:29.700Z,72.80
2023-02-12T06:53:57.406Z,83.87
2023-02-12T06:56:25.861Z,66.67
2023-02-12T06:58:56.034Z,74.27
2023-02-12T07:01:26.159Z,91.90
2023-02-12T07:03:55.998Z,86.80
2023-02-12T07:06:23.961Z,93.27
2023-02-12T07:08:50.962Z,86.80
2023-02-12T07:11:18.752Z,90.53
2023-02-12T07:13:46.757Z,86.47
2023-02-12T07:16:16.302Z,85.47
2023-02-12T07:18:44.899Z,81.90
2023-02-12T07:21:13.582Z,66.50
2023-02-12T07:23:40.888Z,63.83
2023-02-12T07:26:15.063Z,58.17
2023-02-12T07:28:42.543Z,56.83
2023-02-12T07:31:15.391Z,48.00
2023-02-12T07:33:43.105Z,59.93
2023-02-12T07:36:13.028Z,66.67
2023-02-12T07:38:40.594Z,71.70
2023-02-12T07:41:13.416Z,72.90
2023-02-12T07:43:45.133Z,82.37
2023-02-12T07:46:17.369Z,77.53
2023-02-12T07:48:45.805Z,83.73
2023-02-12T07:51:16.150Z,66.47
2023-02-12T07:53:43.412Z,60.50
2023-02-12T07:56:15.105Z,67.47
2023-02-12T07:58:45.394Z,44.67
2023-02-12T08:01:21.571Z,63.27
2023-02-12T08:03:50.142Z,69.33
2023-02-12T08:06:26.708Z,71.20
2023-02-12T08:08:57.156Z,73.50
2023-02-12T08:11:27.379Z,82.57
2023-02-12T08:13:55.258Z,85.63
2023-02-12T08:16:25.212Z,88.93
2023-02-12T08:18:53.506Z,86.57
2023-02-12T08:21:25.871Z,71.00
2023-02-12T08:23:59.118Z,70.80
2023-02-12T08:26:32.873Z,61.93
2023-02-12T08:29:03.127Z,65.20
2023-02-12T08:31:33.210Z,65.27
2023-02-12T08:34:04.192Z,58.33
2023-02-12T08:36:39.465Z,60.63
2023-02-12T08:39:08.662Z,58.97
2023-02-12T08:41:36.018Z,49.20
2023-02-12T08:44:05.047Z,54.17
2023-02-12T08:46:38.688Z,59.43
2023-02-12T08:49:13.049Z,57.50
2023-02-12T08:51:49.117Z,58.47
2023-02-12T08:54:20.094Z,60.50
2023-02-12T08:56:47.984Z,65.40
2023-02-12T08:59:16.762Z,63.70
2023-02-12T09:01:44.930Z,60.40
2023-02-12T09:04:18.856Z,54.07
2023-02-12T09:06:47.114Z,50.50
2023-02-12T09:09:14.684Z,62.80
2023-02-12T09:11:42.767Z,62.33
2023-02-12T09:14:14.268Z,67.60
2023-02-12T09:16:42.823Z,85.30
2023-02-12T09:19:13.478Z,119.23
2023-02-12T09:21:41.674Z,120.70
2023-02-12T09:24:09.315Z,105.77
2023-02-12T09:26:36.535Z,107.60
2023-02-12T09:29:04.748Z,106.07
2023-02-12T09:31:33.279Z,120.70
2023-02-12T09:34:03.466Z,116.10
2023-02-12T09:36:32.030Z,107.47
2023-02-12T09:39:00.060Z,105.00
2023-02-12T09:41:39.361Z,97.67
2023-02-12T09:44:51.122Z,92.50
2023-02-12T09:47:27.417Z,95.40
2023-02-12T09:50:18.030Z,89.60
2023-02-12T09:52:45.158Z,92.50
2023-02-12T09:55:16.696Z,97.53
2023-02-12T09:57:44.595Z,87.97
2023-02-12T10:00:31.613Z,105.83
2023-02-12T10:03:05.722Z,91.32
2023-02-12T10:05:41.754Z,102.13
2023-02-12T10:08:46.907Z,98.50
2023-02-12T10:11:53.332Z,89.33
2023-02-12T10:14:37.570Z,93.40
2023-02-12T10:17:17.826Z,87.93
2023-02-12T10:20:03.031Z,95.53
2023-02-12T10:23:15.205Z,89.63
2023-02-12T10:25:53.021Z,91.00
2023-02-12T10:28:28.618Z,78.27
2023-02-12T10:31:02.782Z,70.40
2023-02-12T10:33:32.142Z,80.77
2023-02-12T10:36:13.789Z,75.23
2023-02-12T10:38:46.957Z,76.27
2023-02-12T10:41:17.333Z,73.23
2023-02-12T10:43:44.496Z,70.03
2023-02-12T10:46:17.925Z,67.87
2023-02-12T10:48:48.262Z,72.40
2023-02-12T10:51:40.333Z,73.23
2023-02-12T10:54:43.657Z,77.50
2023-02-12T10:57:25.434Z,53.10
2023-02-12T10:59:57.347Z,72.67
2023-02-12T11:02:33.028Z,62.67
2023-02-12T11:05:15.905Z,77.03
2023-02-12T11:07:51.366Z,59.17
2023-02-12T11:10:27.411Z,53.10
2023-02-12T11:12:55.290Z,56.77
2023-02-12T11:15:27.758Z,54.47
2023-02-12T11:18:05.496Z,47.20
2023-02-12T11:20:50.910Z,37.17
2023-02-12T11:23:33.538Z,43.03
2023-02-12T11:26:01.985Z,35.70
2023-02-12T11:28:30.966Z,39.77
2023-02-12T11:31:00.080Z,36.67
2023-02-12T11:33:31.149Z,41.70
2023-02-12T11:36:23.419Z,43.70
2023-02-12T11:38:54.863Z,25.93
2023-02-12T11:41:38.366Z,14.83
2023-02-12T11:44:38.508Z,39.60
2023-02-12T11:47:10.832Z,22.47
2023-02-12T11:49:48.666Z,24.27
2023-02-12T11:52:28.693Z,21.23
2023-02-12T11:55:00.729Z,29.00
2023-02-12T11:57:39.324Z,23.47
2023-02-12T12:00:21.183Z,17.93
2023-02-12T12:03:20.887Z,22.50
2023-02-12T12:06:08.414Z,32.33
2023-02-12T12:08:44.167Z,21.67
2023-02-12T12:11:16.929Z,27.90
2023-02-12T12:13:56.182Z,30.80
2023-02-12T12:16:50.428Z,28.23
2023-02-12T12:19:47.045Z,25.03
2023-02-12T12:22:30.482Z,31.57
2023-02-12T12:25:17.700Z,35.63
2023-02-12T12:28:03.506Z,24.13
2023-02-12T12:30:52.191Z,26.17
2023-02-12T12:33:56.991Z,24.23
2023-02-12T12:37:06.309Z,33.43
2023-02-12T12:39:47.289Z,28.43
2023-02-12T12:42:52.498Z,28.30
2023-02-12T12:45:51.522Z,16.87
2023-02-12T12:48:37.197Z,32.53
2023-02-12T12:51:19.221Z,25.93
2023-02-12T12:53:58.912Z,38.20
2023-02-12T12:56:34.674Z,24.33
2023-02-12T12:59:21.117Z,27.83
2023-02-12T13:02:01.539Z,25.43
2023-02-12T13:04:31.795Z,22.87
2023-02-12T13:07:29.781Z,60.87
2023-02-12T13:10:13.775Z,48.60
2023-02-12T13:12:55.522Z,51.40
2023-02-12T13:16:00.669Z,65.13
2023-02-12T13:19:06.782Z,58.97
2023-02-12T13:21:43.110Z,63.07
2023-02-12T13:24:48.327Z,67.17
2023-02-12T13:27:29.147Z,59.07
2023-02-12T13:30:17.575Z,51.23
2023-02-12T13:32:50.929Z,47.50
2023-02-12T13:35:24.288Z,46.60
2023-02-12T13:37:54.581Z,43.05
2023-02-12T13:40:30.482Z,36.20
2023-02-12T13:43:14.399Z,42.70
2023-02-12T13:45:53.958Z,32.23
2023-02-12T13:48:41.821Z,41.63
2023-02-12T13:51:23.987Z,40.25
2023-02-12T13:54:13.627Z,60.83
2023-02-12T13:56:52.695Z,20.33
2023-02-12T13:59:55.857Z,21.73
2023-02-12T14:02:34.792Z,20.38
2023-02-12T14:05:16.250Z,19.02
2023-02-12T14:07:49.855Z,27.77
2023-02-12T14:10:36.295Z,27.07
2023-02-12T14:13:09.539Z,16.92
2023-02-12T14:15:41.292Z,25.30
2023-02-12T14:18:28.310Z,22.13
2023-02-12T14:21:13.827Z,31.53
2023-02-12T14:23:50.960Z,28.23
2023-02-12T14:26:20.472Z,19.77
2023-02-12T14:28:55.607Z,21.70
2023-02-12T14:31:35.545Z,20.17
2023-02-12T14:34:05.360Z,18.53
2023-02-12T14:36:32.404Z,21.00
2023-02-12T14:39:03.505Z,19.60
2023-02-12T14:41:39.294Z,23.90
2023-02-12T14:44:18.697Z,23.87
2023-02-12T14:47:17.673Z,26.85
2023-02-12T14:49:52.557Z,24.33
2023-02-12T14:52:25.676Z,29.10
2023-02-12T14:54:57.083Z,25.67
2023-02-12T14:57:37.059Z,27.77
2023-02-12T15:00:13.204Z,24.93
2023-02-12T15:02:42.387Z,29.20
2023-02-12T15:05:26.214Z,31.03
2023-02-12T15:07:58.673Z,33.97
2023-02-12T15:10:32.285Z,36.20
2023-02-12T15:13:08.864Z,39.50
2023-02-12T15:16:02.716Z,42.50
2023-02-12T15:18:43.096Z,43.30
2023-02-12T15:21:31.800Z,46.23
2023-02-12T15:24:07.770Z,47.33
2023-02-12T15:26:45.196Z,44.37
2023-02-12T15:29:21.659Z,45.93
2023-02-12T15:31:58.054Z,44.25
2023-02-12T15:34:29.310Z,35.20
2023-02-12T15:37:02.306Z,43.83
2023-02-12T15:39:40.055Z,44.13
2023-02-12T15:42:24.831Z,41.00
2023-02-12T15:44:52.441Z,47.07
2023-02-12T15:47:24.913Z,46.93
2023-02-12T15:50:00.425Z,40.83
2023-02-12T15:52:41.968Z,48.30
2023-02-12T15:55:17.281Z,58.53
2023-02-12T15:57:50.802Z,67.13
2023-02-12T16:00:42.144Z,58.90
2023-02-12T16:03:40.994Z,63.77
2023-02-12T16:06:17.793Z,56.33
2023-02-12T16:08:48.578Z,55.80
2023-02-12T16:11:20.896Z,75.33
2023-02-12T16:13:52.595Z,72.87
2023-02-12T16:16:27.383Z,69.83
2023-02-12T16:19:06.654Z,58.00
2023-02-12T16:21:39.134Z,61.63
2023-02-12T16:24:26.797Z,62.40
2023-02-12T16:26:55.407Z,63.70
2023-02-12T16:29:22.731Z,57.70
2023-02-12T16:32:03.614Z,55.47
2023-02-12T16:34:38.491Z,56.30
2023-02-12T16:37:37.371Z,68.03
2023-02-12T16:40:07.790Z,80.57
2023-02-12T16:42:35.227Z,79.43
2023-02-12T16:45:02.321Z,75.23
2023-02-12T16:47:29.629Z,74.80
2023-02-12T16:50:02.479Z,75.10
2023-02-12T16:52:38.691Z,71.50
2023-02-12T16:55:13.311Z,80.70
2023-02-12T16:57:41.153Z,75.77
2023-02-12T17:00:12.936Z,67.27
2023-02-12T17:02:40.149Z,69.73
2023-02-12T17:05:07.796Z,58.57
2023-02-12T17:07:35.416Z,66.47
2023-02-12T17:10:02.572Z,71.13
2023-02-12T17:12:30.351Z,71.83
2023-02-12T17:14:57.313Z,79.40
2023-02-12T17:17:24.677Z,82.73
2023-02-12T17:19:53.581Z,86.87
2023-02-12T17:22:24.817Z,90.73
2023-02-12T17:24:53.468Z,130.77
2023-02-12T17:27:21.030Z,140.43
2023-02-12T17:29:48.368Z,107.83
2023-02-12T17:32:16.469Z,134.13
2023-02-12T17:34:48.733Z,131.70
2023-02-12T17:37:17.984Z,142.13
2023-02-12T17:39:45.105Z,146.67
2023-02-12T17:42:12.390Z,144.00
2023-02-12T17:44:40.254Z,91.17
2023-02-12T17:47:07.610Z,89.07
2023-02-12T17:49:35.731Z,82.00
2023-02-12T17:52:04.156Z,79.10
2023-02-12T17:54:32.808Z,68.00
2023-02-12T17:56:59.805Z,65.03
2023-02-12T17:59:27.226Z,66.80
2023-02-12T18:01:56.293Z,60.13
2023-02-12T18:04:23.302Z,62.20
2023-02-12T18:06:50.338Z,72.93
2023-02-12T18:09:17.362Z,60.23
2023-02-12T18:11:44.664Z,85.17
2023-02-12T18:14:12.218Z,83.60
2023-02-12T18:16:39.433Z,86.63
2023-02-12T18:19:06.830Z,73.47
2023-02-12T18:21:35.248Z,70.77
2023-02-12T18:24:03.875Z,74.77
2023-02-12T18:26:31.281Z,58.10
2023-02-12T18:28:59.904Z,60.37
2023-02-12T18:31:27.803Z,61.10
2023-02-12T18:33:55.454Z,58.43
2023-02-12T18:36:23.168Z,55.93
2023-02-12T18:38:52.904Z,55.03
2023-02-12T18:41:25.306Z,49.53
2023-02-12T18:43:53.996Z,58.83
2023-02-12T18:46:23.576Z,54.97
2023-02-12T18:48:52.095Z,58.33
2023-02-12T18:51:22.701Z,59.73
2023-02-12T18:54:02.912Z,52.53
2023-02-12T18:56:33.449Z,55.37
2023-02-12T18:59:04.719Z,59.40
2023-02-12T19:01:34.448Z,69.40
2023-02-12T19:04:03.129Z,64.17
2023-02-12T19:06:32.292Z,71.07
2023-02-12T19:09:01.913Z,69.97
2023-02-12T19:11:29.419Z,76.63
2023-02-12T19:13:57.214Z,85.20
2023-02-12T19:16:25.335Z,84.23
2023-02-12T19:18:58.712Z,94.83
2023-02-12T19:21:26.535Z,87.67
2023-02-12T19:23:55.204Z,82.67
2023-02-12T19:26:23.071Z,93.60
2023-02-12T19:28:50.315Z,93.37
2023-02-12T19:31:23.958Z,88.40
2023-02-12T19:33:55.889Z,94.27
2023-02-12T19:36:23.805Z,94.43
2023-02-12T19:38:50.959Z,87.00
2023-02-12T19:41:20.566Z,86.40
2023-02-12T19:43:48.082Z,87.80
2023-02-12T19:46:20.027Z,93.97
2023-02-12T19:48:48.227Z,89.57
2023-02-12T19:51:21.214Z,89.33
2023-02-12T19:53:49.181Z,87.60
2023-02-12T19:56:16.676Z,100.63
2023-02-12T19:58:44.765Z,90.83
2023-02-12T20:01:17.760Z,87.60
2023-02-12T20:03:46.148Z,91.50
2023-02-12T20:06:35.446Z,91.33
2023-02-12T20:09:04.260Z,96.53
2023-02-12T20:11:33.111Z,95.27
2023-02-12T20:14:02.500Z,87.93
2023-02-12T20:16:38.090Z,101.43
2023-02-12T20:19:15.231Z,104.00
2023-02-12T20:21:43.432Z,101.93
2023-02-12T20:24:10.611Z,103.70
2023-02-12T20:26:38.417Z,103.87
2023-02-12T20:29:05.807Z,108.53
2023-02-12T20:31:37.873Z,94.47
2023-02-12T20:34:08.256Z,103.23
2023-02-12T20:36:38.522Z,94.37
2023-02-12T20:39:07.997Z,88.63
2023-02-12T20:41:37.360Z,89.00
2023-02-12T20:44:11.613Z,98.27
2023-02-12T20:46:42.786Z,98.60
2023-02-12T20:49:14.728Z,89.60
2023-02-12T20:51:42.415Z,99.20
2023-02-12T20:54:10.074Z,93.10
2023-02-12T20:56:38.778Z,98.90
2023-02-12T20:59:07.079Z,92.33
2023-02-12T21:01:39.474Z,97.87
2023-02-12T21:04:09.657Z,97.57
2023-02-12T21:06:37.129Z,92.53
2023-02-12T21:09:04.765Z,92.30
2023-02-12T21:11:32.498Z,88.27
2023-02-12T21:14:18.510Z,96.77
2023-02-12T21:16:47.929Z,95.80
2023-02-12T21:19:14.876Z,100.70
2023-02-12T21:21:45.468Z,101.57
2023-02-12T21:24:15.677Z,109.83
2023-02-12T21:26:43.402Z,107.00
2023-02-12T21:29:10.669Z,111.83
2023-02-12T21:31:41.483Z,102.03
2023-02-12T21:34:13.558Z,97.57
2023-02-12T21:36:42.334Z,96.93
2023-02-12T21:39:11.825Z,101.37
2023-02-12T21:41:41.097Z,100.47
2023-02-12T21:44:14.042Z,107.37
2023-02-12T21:46:41.915Z,113.40
2023-02-12T21:49:09.570Z,108.97
2023-02-12T21:51:39.572Z,105.90
2023-02-12T21:54:13.684Z,108.60
2023-02-12T21:56:42.310Z,107.83
2023-02-12T21:59:09.865Z,109.97
2023-02-12T22:01:41.429Z,109.20
2023-02-12T22:04:09.793Z,107.17
2023-02-12T22:06:42.960Z,105.27
2023-02-12T22:09:11.820Z,112.23
2023-02-12T22:11:40.348Z,109.90
2023-02-12T22:14:11.143Z,119.67
2023-02-12T22:16:38.239Z,112.60
2023-02-12T22:19:05.797Z,116.33
2023-02-12T22:21:36.734Z,107.10
2023-02-12T22:24:06.743Z,106.47
2023-02-12T22:26:34.557Z,110.27
2023-02-12T22:29:06.137Z,107.70
2023-02-12T22:31:35.965Z,112.17
2023-02-12T22:34:06.756Z,110.23
2023-02-12T22:36:36.187Z,100.47
2023-02-12T22:39:04.039Z,107.00
2023-02-12T22:41:32.774Z,109.50
2023-02-12T22:44:01.474Z,109.50
2023-02-12T22:46:28.963Z,112.67
2023-02-12T22:48:56.501Z,99.07
2023-02-12T22:51:28.921Z,107.97
2023-02-12T22:53:57.876Z,103.53
2023-02-12T22:56:26.172Z,106.47
2023-02-12T22:58:58.768Z,111.83
2023-02-12T23:01:27.308Z,114.37
2023-02-12T23:03:55.076Z,123.97
2023-02-12T23:06:25.766Z,115.23
2023-02-12T23:08:55.209Z,119.10
2023-02-12T23:11:24.724Z,124.97
2023-02-12T23:13:52.733Z,124.53
2023-02-12T23:16:20.773Z,154.27
2023-02-12T23:18:48.439Z,170.03
2023-02-12T23:21:15.547Z,176.33
2023-02-12T23:23:42.644Z,152.20
2023-02-12T23:26:09.728Z,135.73
2023-02-12T23:28:36.817Z,154.33
2023-02-12T23:31:04.032Z,172.27
2023-02-12T23:33:31.244Z,148.50
2023-02-12T23:35:58.216Z,135.43
2023-02-12T23:38:25.353Z,135.97
2023-02-12T23:40:52.331Z,130.00
2023-02-12T23:43:19.301Z,129.03
2023-02-12T23:45:47.052Z,121.40
2023-02-12T23:48:15.205Z,130.87
2023-02-12T23:50:42.565Z,122.17
2023-02-12T23:53:11.296Z,127.00
2023-02-12T23:55:39.341Z,133.30
2023-02-12T23:58:07.295Z,150.00
